sensor_id;sensor_type;location;lat;lon;timestamp;P1;durP1;ratioP1;P2;durP2;ratioP2
64520;SDS011;50896;46.714;17.322;2023-04-16T00:01:59;1.58;;;1.48;;
64520;SDS011;50896;46.714;17.322;2023-04-16T00:04:27;2.33;;;1.80;;
64520;SDS011;50896;46.714;17.322;2023-04-16T00:06:53;2.40;;;1.85;;
64520;SDS011;50896;46.714;17.322;2023-04-16T00:09:20;2.28;;;1.70;;
64520;SDS011;50896;46.714;17.322;2023-04-16T00:11:47;3.35;;;2.00;;
64520;SDS011;50896;46.714;17.322;2023-04-16T00:14:14;5.55;;;2.20;;
64520;SDS011;50896;46.714;17.322;2023-04-16T00:16:41;2.17;;;1.90;;
64520;SDS011;50896;46.714;17.322;2023-04-16T00:19:07;4.82;;;2.30;;
64520;SDS011;50896;46.714;17.322;2023-04-16T00:21:35;3.63;;;1.90;;
64520;SDS011;50896;46.714;17.322;2023-04-16T00:24:02;2.40;;;2.20;;
64520;SDS011;50896;46.714;17.322;2023-04-16T00:26:29;2.75;;;1.80;;
64520;SDS011;50896;46.714;17.322;2023-04-16T00:28:57;2.90;;;1.98;;
64520;SDS011;50896;46.714;17.322;2023-04-16T00:31:27;2.45;;;1.95;;
64520;SDS011;50896;46.714;17.322;2023-04-16T00:33:55;2.78;;;1.90;;
64520;SDS011;50896;46.714;17.322;2023-04-16T00:36:22;3.85;;;1.98;;
64520;SDS011;50896;46.714;17.322;2023-04-16T00:38:50;2.72;;;1.90;;
64520;SDS011;50896;46.714;17.322;2023-04-16T00:41:17;2.65;;;2.03;;
64520;SDS011;50896;46.714;17.322;2023-04-16T00:43:44;2.20;;;1.70;;
64520;SDS011;50896;46.714;17.322;2023-04-16T00:46:11;3.38;;;1.70;;
64520;SDS011;50896;46.714;17.322;2023-04-16T00:48:38;1.90;;;1.65;;
64520;SDS011;50896;46.714;17.322;2023-04-16T00:51:06;1.95;;;1.75;;
64520;SDS011;50896;46.714;17.322;2023-04-16T00:53:34;5.40;;;2.13;;
64520;SDS011;50896;46.714;17.322;2023-04-16T00:56:04;2.65;;;1.67;;
64520;SDS011;50896;46.714;17.322;2023-04-16T00:58:33;2.80;;;2.20;;
64520;SDS011;50896;46.714;17.322;2023-04-16T01:01:01;4.15;;;1.98;;
64520;SDS011;50896;46.714;17.322;2023-04-16T01:03:35;3.10;;;1.75;;
64520;SDS011;50896;46.714;17.322;2023-04-16T01:06:05;3.53;;;1.73;;
64520;SDS011;50896;46.714;17.322;2023-04-16T01:08:32;3.40;;;2.10;;
64520;SDS011;50896;46.714;17.322;2023-04-16T01:10:59;2.10;;;1.70;;
64520;SDS011;50896;46.714;17.322;2023-04-16T01:13:26;3.88;;;1.73;;
64520;SDS011;50896;46.714;17.322;2023-04-16T01:15:53;2.63;;;1.75;;
64520;SDS011;50896;46.714;17.322;2023-04-16T01:18:20;2.05;;;1.58;;
64520;SDS011;50896;46.714;17.322;2023-04-16T01:20:49;2.20;;;1.60;;
64520;SDS011;50896;46.714;17.322;2023-04-16T01:23:17;1.98;;;1.70;;
64520;SDS011;50896;46.714;17.322;2023-04-16T01:25:44;2.33;;;1.52;;
64520;SDS011;50896;46.714;17.322;2023-04-16T01:28:12;4.45;;;2.03;;
64520;SDS011;50896;46.714;17.322;2023-04-16T01:30:39;1.92;;;1.70;;
64520;SDS011;50896;46.714;17.322;2023-04-16T01:33:32;3.10;;;1.92;;
64520;SDS011;50896;46.714;17.322;2023-04-16T01:35:59;2.63;;;1.85;;
64520;SDS011;50896;46.714;17.322;2023-04-16T01:38:26;2.28;;;1.70;;
64520;SDS011;50896;46.714;17.322;2023-04-16T01:40:56;2.65;;;1.80;;
64520;SDS011;50896;46.714;17.322;2023-04-16T01:43:23;2.78;;;2.08;;
64520;SDS011;50896;46.714;17.322;2023-04-16T01:45:51;2.80;;;1.70;;
64520;SDS011;50896;46.714;17.322;2023-04-16T01:48:19;1.92;;;1.63;;
64520;SDS011;50896;46.714;17.322;2023-04-16T01:50:46;4.28;;;2.00;;
64520;SDS011;50896;46.714;17.322;2023-04-16T01:53:12;7.20;;;1.80;;
64520;SDS011;50896;46.714;17.322;2023-04-16T01:55:39;2.60;;;1.70;;
64520;SDS011;50896;46.714;17.322;2023-04-16T01:58:06;2.80;;;1.67;;
64520;SDS011;50896;46.714;17.322;2023-04-16T02:00:36;4.75;;;1.80;;
64520;SDS011;50896;46.714;17.322;2023-04-16T02:03:03;2.55;;;1.60;;
64520;SDS011;50896;46.714;17.322;2023-04-16T02:05:30;2.10;;;1.58;;
64520;SDS011;50896;46.714;17.322;2023-04-16T02:07:57;2.40;;;2.03;;
64520;SDS011;50896;46.714;17.322;2023-04-16T02:10:23;3.20;;;2.15;;
64520;SDS011;50896;46.714;17.322;2023-04-16T02:12:50;2.90;;;2.22;;
64520;SDS011;50896;46.714;17.322;2023-04-16T02:15:17;3.83;;;2.33;;
64520;SDS011;50896;46.714;17.322;2023-04-16T02:17:44;4.72;;;2.40;;
64520;SDS011;50896;46.714;17.322;2023-04-16T02:20:12;3.30;;;2.40;;
64520;SDS011;50896;46.714;17.322;2023-04-16T02:22:50;3.20;;;1.98;;
64520;SDS011;50896;46.714;17.322;2023-04-16T02:25:20;4.15;;;2.42;;
64520;SDS011;50896;46.714;17.322;2023-04-16T02:27:48;2.72;;;2.28;;
64520;SDS011;50896;46.714;17.322;2023-04-16T02:30:23;2.80;;;2.17;;
64520;SDS011;50896;46.714;17.322;2023-04-16T02:32:51;2.47;;;2.03;;
64520;SDS011;50896;46.714;17.322;2023-04-16T02:35:19;2.03;;;1.80;;
64520;SDS011;50896;46.714;17.322;2023-04-16T02:37:46;3.00;;;1.80;;
64520;SDS011;50896;46.714;17.322;2023-04-16T02:40:13;2.85;;;1.80;;
64520;SDS011;50896;46.714;17.322;2023-04-16T02:42:40;2.28;;;1.80;;
64520;SDS011;50896;46.714;17.322;2023-04-16T02:45:07;3.45;;;1.58;;
64520;SDS011;50896;46.714;17.322;2023-04-16T02:47:35;3.25;;;1.55;;
64520;SDS011;50896;46.714;17.322;2023-04-16T02:50:02;2.17;;;1.45;;
64520;SDS011;50896;46.714;17.322;2023-04-16T02:52:29;2.20;;;1.55;;
64520;SDS011;50896;46.714;17.322;2023-04-16T02:54:57;2.30;;;1.50;;
64520;SDS011;50896;46.714;17.322;2023-04-16T02:57:25;1.40;;;1.30;;
64520;SDS011;50896;46.714;17.322;2023-04-16T02:59:52;2.33;;;1.50;;
64520;SDS011;50896;46.714;17.322;2023-04-16T03:02:18;3.38;;;1.60;;
64520;SDS011;50896;46.714;17.322;2023-04-16T03:04:46;1.98;;;1.30;;
64520;SDS011;50896;46.714;17.322;2023-04-16T03:07:13;1.63;;;1.40;;
64520;SDS011;50896;46.714;17.322;2023-04-16T03:09:39;1.65;;;1.20;;
64520;SDS011;50896;46.714;17.322;2023-04-16T03:12:06;1.67;;;1.20;;
64520;SDS011;50896;46.714;17.322;2023-04-16T03:14:33;1.10;;;1.00;;
64520;SDS011;50896;46.714;17.322;2023-04-16T03:17:00;1.33;;;1.00;;
64520;SDS011;50896;46.714;17.322;2023-04-16T03:19:27;1.65;;;1.10;;
64520;SDS011;50896;46.714;17.322;2023-04-16T03:21:54;1.85;;;0.80;;
64520;SDS011;50896;46.714;17.322;2023-04-16T03:24:21;1.95;;;0.70;;
64520;SDS011;50896;46.714;17.322;2023-04-16T03:26:48;0.90;;;0.70;;
64520;SDS011;50896;46.714;17.322;2023-04-16T03:29:15;1.15;;;0.70;;
64520;SDS011;50896;46.714;17.322;2023-04-16T03:31:42;0.60;;;0.50;;
64520;SDS011;50896;46.714;17.322;2023-04-16T03:34:09;2.03;;;0.80;;
64520;SDS011;50896;46.714;17.322;2023-04-16T03:36:38;1.27;;;0.63;;
64520;SDS011;50896;46.714;17.322;2023-04-16T03:39:05;1.10;;;0.60;;
64520;SDS011;50896;46.714;17.322;2023-04-16T03:41:32;2.83;;;1.00;;
64520;SDS011;50896;46.714;17.322;2023-04-16T03:43:59;1.65;;;0.82;;
64520;SDS011;50896;46.714;17.322;2023-04-16T03:46:26;2.17;;;1.52;;
64520;SDS011;50896;46.714;17.322;2023-04-16T03:48:53;4.28;;;1.85;;
64520;SDS011;50896;46.714;17.322;2023-04-16T03:51:20;2.15;;;1.80;;
64520;SDS011;50896;46.714;17.322;2023-04-16T03:53:46;4.97;;;2.40;;
64520;SDS011;50896;46.714;17.322;2023-04-16T03:56:13;3.67;;;1.90;;
64520;SDS011;50896;46.714;17.322;2023-04-16T03:58:40;2.92;;;2.10;;
64520;SDS011;50896;46.714;17.322;2023-04-16T04:01:07;3.35;;;2.30;;
64520;SDS011;50896;46.714;17.322;2023-04-16T04:03:35;5.03;;;2.08;;
64520;SDS011;50896;46.714;17.322;2023-04-16T04:06:09;3.92;;;2.40;;
64520;SDS011;50896;46.714;17.322;2023-04-16T04:08:36;3.08;;;2.05;;
64520;SDS011;50896;46.714;17.322;2023-04-16T04:11:03;3.17;;;2.53;;
64520;SDS011;50896;46.714;17.322;2023-04-16T04:13:32;3.10;;;2.40;;
64520;SDS011;50896;46.714;17.322;2023-04-16T04:15:59;3.00;;;2.17;;
64520;SDS011;50896;46.714;17.322;2023-04-16T04:18:27;3.17;;;2.40;;
64520;SDS011;50896;46.714;17.322;2023-04-16T04:20:54;3.83;;;2.35;;
64520;SDS011;50896;46.714;17.322;2023-04-16T04:23:25;3.67;;;2.47;;
64520;SDS011;50896;46.714;17.322;2023-04-16T04:25:52;4.35;;;2.38;;
64520;SDS011;50896;46.714;17.322;2023-04-16T04:28:19;4.90;;;3.00;;
64520;SDS011;50896;46.714;17.322;2023-04-16T04:30:46;2.60;;;2.40;;
64520;SDS011;50896;46.714;17.322;2023-04-16T04:33:13;4.03;;;2.60;;
64520;SDS011;50896;46.714;17.322;2023-04-16T04:35:40;5.43;;;2.60;;
64520;SDS011;50896;46.714;17.322;2023-04-16T04:38:07;3.33;;;2.40;;
64520;SDS011;50896;46.714;17.322;2023-04-16T04:40:34;5.95;;;3.10;;
64520;SDS011;50896;46.714;17.322;2023-04-16T04:43:02;3.17;;;2.50;;
64520;SDS011;50896;46.714;17.322;2023-04-16T04:45:29;4.40;;;2.60;;
64520;SDS011;50896;46.714;17.322;2023-04-16T04:47:57;4.93;;;2.25;;
64520;SDS011;50896;46.714;17.322;2023-04-16T04:50:24;2.80;;;2.13;;
64520;SDS011;50896;46.714;17.322;2023-04-16T04:52:51;3.35;;;2.20;;
64520;SDS011;50896;46.714;17.322;2023-04-16T04:55:18;3.50;;;2.00;;
64520;SDS011;50896;46.714;17.322;2023-04-16T04:57:45;4.20;;;1.98;;
64520;SDS011;50896;46.714;17.322;2023-04-16T05:00:12;4.28;;;2.03;;
64520;SDS011;50896;46.714;17.322;2023-04-16T05:02:57;1.98;;;1.50;;
64520;SDS011;50896;46.714;17.322;2023-04-16T05:05:27;2.00;;;1.40;;
64520;SDS011;50896;46.714;17.322;2023-04-16T05:07:54;2.20;;;1.20;;
64520;SDS011;50896;46.714;17.322;2023-04-16T05:10:21;1.60;;;1.10;;
64520;SDS011;50896;46.714;17.322;2023-04-16T05:12:47;2.72;;;1.27;;
64520;SDS011;50896;46.714;17.322;2023-04-16T05:15:15;3.78;;;1.20;;
64520;SDS011;50896;46.714;17.322;2023-04-16T05:17:42;2.10;;;0.82;;
64520;SDS011;50896;46.714;17.322;2023-04-16T05:20:09;1.67;;;1.10;;
64520;SDS011;50896;46.714;17.322;2023-04-16T05:22:36;0.85;;;0.80;;
64520;SDS011;50896;46.714;17.322;2023-04-16T05:25:03;1.30;;;0.80;;
64520;SDS011;50896;46.714;17.322;2023-04-16T05:27:30;1.35;;;0.75;;
64520;SDS011;50896;46.714;17.322;2023-04-16T05:29:57;1.65;;;1.20;;
64520;SDS011;50896;46.714;17.322;2023-04-16T05:32:24;1.50;;;1.30;;
64520;SDS011;50896;46.714;17.322;2023-04-16T05:34:52;2.47;;;1.88;;
64520;SDS011;50896;46.714;17.322;2023-04-16T05:37:19;3.05;;;2.28;;
64520;SDS011;50896;46.714;17.322;2023-04-16T05:39:46;3.65;;;2.60;;
64520;SDS011;50896;46.714;17.322;2023-04-16T05:42:13;4.28;;;2.83;;
64520;SDS011;50896;46.714;17.322;2023-04-16T05:44:39;4.75;;;3.20;;
64520;SDS011;50896;46.714;17.322;2023-04-16T05:47:06;4.70;;;3.20;;
64520;SDS011;50896;46.714;17.322;2023-04-16T05:49:34;2.85;;;2.55;;
64520;SDS011;50896;46.714;17.322;2023-04-16T05:54:32;4.25;;;2.50;;
64520;SDS011;50896;46.714;17.322;2023-04-16T05:56:59;3.13;;;2.47;;
64520;SDS011;50896;46.714;17.322;2023-04-16T05:59:27;3.13;;;2.47;;
64520;SDS011;50896;46.714;17.322;2023-04-16T06:01:54;4.28;;;2.90;;
64520;SDS011;50896;46.714;17.322;2023-04-16T06:04:21;3.03;;;2.60;;
64520;SDS011;50896;46.714;17.322;2023-04-16T06:06:48;2.55;;;2.15;;
64520;SDS011;50896;46.714;17.322;2023-04-16T06:09:15;2.85;;;2.00;;
64520;SDS011;50896;46.714;17.322;2023-04-16T06:11:43;2.55;;;2.03;;
64520;SDS011;50896;46.714;17.322;2023-04-16T06:14:10;4.18;;;2.30;;
64520;SDS011;50896;46.714;17.322;2023-04-16T06:16:37;3.92;;;2.10;;
64520;SDS011;50896;46.714;17.322;2023-04-16T06:19:03;3.65;;;1.70;;
64520;SDS011;50896;46.714;17.322;2023-04-16T06:21:30;2.00;;;1.70;;
64520;SDS011;50896;46.714;17.322;2023-04-16T06:23:57;2.35;;;1.70;;
64520;SDS011;50896;46.714;17.322;2023-04-16T06:26:24;2.15;;;1.70;;
64520;SDS011;50896;46.714;17.322;2023-04-16T06:28:52;1.45;;;1.35;;
64520;SDS011;50896;46.714;17.322;2023-04-16T06:31:18;2.63;;;1.65;;
64520;SDS011;50896;46.714;17.322;2023-04-16T06:33:46;1.80;;;1.50;;
64520;SDS011;50896;46.714;17.322;2023-04-16T06:36:12;1.50;;;1.17;;
64520;SDS011;50896;46.714;17.322;2023-04-16T06:38:39;1.52;;;1.25;;
64520;SDS011;50896;46.714;17.322;2023-04-16T06:41:06;1.27;;;1.17;;
64520;SDS011;50896;46.714;17.322;2023-04-16T06:43:33;2.13;;;1.13;;
64520;SDS011;50896;46.714;17.322;2023-04-16T06:46:00;1.83;;;1.20;;
64520;SDS011;50896;46.714;17.322;2023-04-16T06:48:26;0.85;;;0.82;;
64520;SDS011;50896;46.714;17.322;2023-04-16T06:50:54;2.03;;;1.10;;
64520;SDS011;50896;46.714;17.322;2023-04-16T06:53:22;1.23;;;1.05;;
64520;SDS011;50896;46.714;17.322;2023-04-16T06:55:49;2.97;;;1.10;;
64520;SDS011;50896;46.714;17.322;2023-04-16T06:58:17;1.20;;;1.08;;
64520;SDS011;50896;46.714;17.322;2023-04-16T07:00:44;1.35;;;1.05;;
64520;SDS011;50896;46.714;17.322;2023-04-16T07:03:11;1.27;;;0.98;;
64520;SDS011;50896;46.714;17.322;2023-04-16T07:05:38;1.20;;;0.88;;
64520;SDS011;50896;46.714;17.322;2023-04-16T07:08:05;1.35;;;0.90;;
64520;SDS011;50896;46.714;17.322;2023-04-16T07:10:32;1.40;;;0.70;;
64520;SDS011;50896;46.714;17.322;2023-04-16T07:12:58;1.23;;;0.80;;
64520;SDS011;50896;46.714;17.322;2023-04-16T07:15:27;3.47;;;1.00;;
64520;SDS011;50896;46.714;17.322;2023-04-16T07:17:54;0.75;;;0.75;;
64520;SDS011;50896;46.714;17.322;2023-04-16T07:20:20;0.88;;;0.77;;
64520;SDS011;50896;46.714;17.322;2023-04-16T07:22:48;0.82;;;0.80;;
64520;SDS011;50896;46.714;17.322;2023-04-16T07:25:14;0.63;;;0.63;;
64520;SDS011;50896;46.714;17.322;2023-04-16T07:27:41;1.20;;;0.80;;
64520;SDS011;50896;46.714;17.322;2023-04-16T07:30:08;1.13;;;0.80;;
64520;SDS011;50896;46.714;17.322;2023-04-16T07:32:35;1.30;;;0.75;;
64520;SDS011;50896;46.714;17.322;2023-04-16T07:35:02;0.80;;;0.80;;
64520;SDS011;50896;46.714;17.322;2023-04-16T07:37:29;1.77;;;0.80;;
64520;SDS011;50896;46.714;17.322;2023-04-16T07:39:56;1.35;;;0.90;;
64520;SDS011;50896;46.714;17.322;2023-04-16T07:42:23;1.00;;;0.90;;
64520;SDS011;50896;46.714;17.322;2023-04-16T07:44:49;1.00;;;0.90;;
64520;SDS011;50896;46.714;17.322;2023-04-16T07:47:16;1.13;;;1.00;;
64520;SDS011;50896;46.714;17.322;2023-04-16T07:49:43;0.77;;;0.77;;
64520;SDS011;50896;46.714;17.322;2023-04-16T07:52:10;1.15;;;0.70;;
64520;SDS011;50896;46.714;17.322;2023-04-16T07:54:37;0.88;;;0.80;;
64520;SDS011;50896;46.714;17.322;2023-04-16T07:57:04;1.30;;;0.98;;
64520;SDS011;50896;46.714;17.322;2023-04-16T07:59:30;0.80;;;0.75;;
64520;SDS011;50896;46.714;17.322;2023-04-16T08:01:57;1.15;;;0.80;;
64520;SDS011;50896;46.714;17.322;2023-04-16T08:04:24;2.95;;;0.82;;
64520;SDS011;50896;46.714;17.322;2023-04-16T08:06:52;1.58;;;0.88;;
64520;SDS011;50896;46.714;17.322;2023-04-16T08:09:19;1.35;;;0.60;;
64520;SDS011;50896;46.714;17.322;2023-04-16T08:11:47;1.40;;;1.00;;
64520;SDS011;50896;46.714;17.322;2023-04-16T08:14:15;1.45;;;1.23;;
64520;SDS011;50896;46.714;17.322;2023-04-16T08:16:42;1.92;;;1.25;;
64520;SDS011;50896;46.714;17.322;2023-04-16T08:19:09;1.70;;;1.20;;
64520;SDS011;50896;46.714;17.322;2023-04-16T08:21:36;1.70;;;1.30;;
64520;SDS011;50896;46.714;17.322;2023-04-16T08:24:03;2.30;;;1.30;;
64520;SDS011;50896;46.714;17.322;2023-04-16T08:26:30;1.60;;;1.20;;
64520;SDS011;50896;46.714;17.322;2023-04-16T08:29:00;1.23;;;1.02;;
64520;SDS011;50896;46.714;17.322;2023-04-16T08:31:27;1.50;;;1.08;;
64520;SDS011;50896;46.714;17.322;2023-04-16T08:33:54;1.55;;;1.20;;
64520;SDS011;50896;46.714;17.322;2023-04-16T08:36:20;2.10;;;1.20;;
64520;SDS011;50896;46.714;17.322;2023-04-16T08:38:47;1.15;;;1.05;;
64520;SDS011;50896;46.714;17.322;2023-04-16T08:41:14;1.42;;;1.15;;
64520;SDS011;50896;46.714;17.322;2023-04-16T08:43:43;1.45;;;1.10;;
64520;SDS011;50896;46.714;17.322;2023-04-16T08:46:11;1.45;;;1.20;;
64520;SDS011;50896;46.714;17.322;2023-04-16T08:48:38;1.65;;;1.50;;
64520;SDS011;50896;46.714;17.322;2023-04-16T08:53:42;1.50;;;1.38;;
64520;SDS011;50896;46.714;17.322;2023-04-16T08:56:13;2.10;;;1.45;;
64520;SDS011;50896;46.714;17.322;2023-04-16T08:58:45;1.75;;;1.60;;
64520;SDS011;50896;46.714;17.322;2023-04-16T09:01:14;1.67;;;1.30;;
64520;SDS011;50896;46.714;17.322;2023-04-16T09:03:43;1.70;;;1.40;;
64520;SDS011;50896;46.714;17.322;2023-04-16T09:06:13;1.50;;;1.40;;
64520;SDS011;50896;46.714;17.322;2023-04-16T09:08:44;1.98;;;1.48;;
64520;SDS011;50896;46.714;17.322;2023-04-16T09:11:18;1.42;;;1.33;;
64520;SDS011;50896;46.714;17.322;2023-04-16T09:13:45;1.77;;;1.30;;
64520;SDS011;50896;46.714;17.322;2023-04-16T09:16:13;1.42;;;1.30;;
64520;SDS011;50896;46.714;17.322;2023-04-16T09:18:40;1.27;;;1.15;;
64520;SDS011;50896;46.714;17.322;2023-04-16T09:21:10;1.50;;;1.40;;
64520;SDS011;50896;46.714;17.322;2023-04-16T09:23:38;1.15;;;1.05;;
64520;SDS011;50896;46.714;17.322;2023-04-16T09:26:05;1.15;;;1.00;;
64520;SDS011;50896;46.714;17.322;2023-04-16T09:28:45;1.20;;;1.10;;
64520;SDS011;50896;46.714;17.322;2023-04-16T09:31:15;1.30;;;1.20;;
64520;SDS011;50896;46.714;17.322;2023-04-16T09:33:43;2.30;;;1.10;;
64520;SDS011;50896;46.714;17.322;2023-04-16T09:36:26;1.30;;;1.20;;
64520;SDS011;50896;46.714;17.322;2023-04-16T09:38:53;1.20;;;1.10;;
64520;SDS011;50896;46.714;17.322;2023-04-16T09:41:23;1.35;;;1.25;;
64520;SDS011;50896;46.714;17.322;2023-04-16T09:44:05;3.20;;;1.17;;
64520;SDS011;50896;46.714;17.322;2023-04-16T09:49:08;3.35;;;1.10;;
64520;SDS011;50896;46.714;17.322;2023-04-16T09:51:45;2.53;;;1.00;;
64520;SDS011;50896;46.714;17.322;2023-04-16T09:54:18;1.85;;;1.00;;
64520;SDS011;50896;46.714;17.322;2023-04-16T09:56:46;1.65;;;0.95;;
64520;SDS011;50896;46.714;17.322;2023-04-16T09:59:19;0.82;;;0.82;;
64520;SDS011;50896;46.714;17.322;2023-04-16T10:01:47;0.73;;;0.70;;
64520;SDS011;50896;46.714;17.322;2023-04-16T10:04:15;1.10;;;1.00;;
64520;SDS011;50896;46.714;17.322;2023-04-16T10:06:42;0.98;;;0.90;;
64520;SDS011;50896;46.714;17.322;2023-04-16T10:09:09;1.10;;;0.95;;
64520;SDS011;50896;46.714;17.322;2023-04-16T10:11:36;1.20;;;1.10;;
64520;SDS011;50896;46.714;17.322;2023-04-16T10:14:04;2.45;;;1.30;;
64520;SDS011;50896;46.714;17.322;2023-04-16T10:16:31;1.60;;;1.20;;
64520;SDS011;50896;46.714;17.322;2023-04-16T10:18:59;2.65;;;1.65;;
64520;SDS011;50896;46.714;17.322;2023-04-16T10:21:26;1.45;;;1.35;;
64520;SDS011;50896;46.714;17.322;2023-04-16T10:23:59;1.35;;;1.10;;
64520;SDS011;50896;46.714;17.322;2023-04-16T10:26:28;1.75;;;1.40;;
64520;SDS011;50896;46.714;17.322;2023-04-16T10:28:56;1.67;;;1.40;;
64520;SDS011;50896;46.714;17.322;2023-04-16T10:31:24;1.42;;;1.27;;
64520;SDS011;50896;46.714;17.322;2023-04-16T10:33:51;1.55;;;1.25;;
64520;SDS011;50896;46.714;17.322;2023-04-16T10:36:22;1.98;;;1.23;;
64520;SDS011;50896;46.714;17.322;2023-04-16T10:38:52;1.42;;;1.15;;
64520;SDS011;50896;46.714;17.322;2023-04-16T10:41:24;2.13;;;1.20;;
64520;SDS011;50896;46.714;17.322;2023-04-16T10:43:52;1.25;;;0.90;;
64520;SDS011;50896;46.714;17.322;2023-04-16T10:46:23;1.50;;;1.00;;
64520;SDS011;50896;46.714;17.322;2023-04-16T10:49:01;1.48;;;0.90;;
64520;SDS011;50896;46.714;17.322;2023-04-16T10:51:37;1.13;;;1.02;;
64520;SDS011;50896;46.714;17.322;2023-04-16T10:56:35;1.05;;;0.90;;
64520;SDS011;50896;46.714;17.322;2023-04-16T10:59:05;1.15;;;1.05;;
64520;SDS011;50896;46.714;17.322;2023-04-16T11:01:43;1.73;;;1.10;;
64520;SDS011;50896;46.714;17.322;2023-04-16T11:12:33;1.98;;;1.10;;
64520;SDS011;50896;46.714;17.322;2023-04-16T11:15:06;1.00;;;0.90;;
64520;SDS011;50896;46.714;17.322;2023-04-16T11:17:39;1.27;;;1.15;;
64520;SDS011;50896;46.714;17.322;2023-04-16T11:20:09;2.25;;;1.05;;
64520;SDS011;50896;46.714;17.322;2023-04-16T11:22:50;1.10;;;1.00;;
64520;SDS011;50896;46.714;17.322;2023-04-16T11:25:21;1.13;;;1.02;;
64520;SDS011;50896;46.714;17.322;2023-04-16T11:27:51;1.17;;;1.05;;
64520;SDS011;50896;46.714;17.322;2023-04-16T11:30:29;1.20;;;1.10;;
64520;SDS011;50896;46.714;17.322;2023-04-16T11:35:44;1.98;;;1.73;;
64520;SDS011;50896;46.714;17.322;2023-04-16T11:38:33;3.67;;;1.80;;
64520;SDS011;50896;46.714;17.322;2023-04-16T11:41:01;1.58;;;1.40;;
64520;SDS011;50896;46.714;17.322;2023-04-16T11:43:28;2.33;;;1.50;;
64520;SDS011;50896;46.714;17.322;2023-04-16T11:45:59;1.70;;;1.50;;
64520;SDS011;50896;46.714;17.322;2023-04-16T11:48:45;2.05;;;1.60;;
64520;SDS011;50896;46.714;17.322;2023-04-16T11:51:16;2.08;;;1.50;;
64520;SDS011;50896;46.714;17.322;2023-04-16T11:53:53;3.38;;;1.73;;
64520;SDS011;50896;46.714;17.322;2023-04-16T11:56:25;2.65;;;2.15;;
64520;SDS011;50896;46.714;17.322;2023-04-16T11:59:10;2.03;;;1.83;;
64520;SDS011;50896;46.714;17.322;2023-04-16T12:01:39;2.33;;;2.10;;
64520;SDS011;50896;46.714;17.322;2023-04-16T12:04:07;2.72;;;2.35;;
64520;SDS011;50896;46.714;17.322;2023-04-16T12:06:34;2.28;;;1.88;;
64520;SDS011;50896;46.714;17.322;2023-04-16T12:11:48;2.42;;;1.70;;
64520;SDS011;50896;46.714;17.322;2023-04-16T12:14:15;2.75;;;1.83;;
64520;SDS011;50896;46.714;17.322;2023-04-16T12:16:41;1.70;;;1.60;;
64520;SDS011;50896;46.714;17.322;2023-04-16T12:19:09;2.47;;;1.42;;
64520;SDS011;50896;46.714;17.322;2023-04-16T12:21:41;1.80;;;1.50;;
64520;SDS011;50896;46.714;17.322;2023-04-16T12:24:10;1.85;;;1.63;;
64520;SDS011;50896;46.714;17.322;2023-04-16T12:26:40;1.80;;;1.60;;
64520;SDS011;50896;46.714;17.322;2023-04-16T12:29:15;2.13;;;1.27;;
64520;SDS011;50896;46.714;17.322;2023-04-16T12:31:47;1.67;;;1.58;;
64520;SDS011;50896;46.714;17.322;2023-04-16T12:34:15;2.13;;;1.67;;
64520;SDS011;50896;46.714;17.322;2023-04-16T12:36:43;2.05;;;1.50;;
64520;SDS011;50896;46.714;17.322;2023-04-16T12:39:11;1.70;;;1.60;;
64520;SDS011;50896;46.714;17.322;2023-04-16T12:41:39;3.20;;;1.60;;
64520;SDS011;50896;46.714;17.322;2023-04-16T12:46:41;1.73;;;1.35;;
64520;SDS011;50896;46.714;17.322;2023-04-16T12:49:09;1.88;;;1.30;;
64520;SDS011;50896;46.714;17.322;2023-04-16T12:51:37;2.55;;;1.90;;
64520;SDS011;50896;46.714;17.322;2023-04-16T12:54:04;1.75;;;1.50;;
64520;SDS011;50896;46.714;17.322;2023-04-16T12:56:35;2.40;;;2.20;;
64520;SDS011;50896;46.714;17.322;2023-04-16T12:59:02;2.10;;;1.90;;
64520;SDS011;50896;46.714;17.322;2023-04-16T13:01:28;1.70;;;1.40;;
64520;SDS011;50896;46.714;17.322;2023-04-16T13:03:56;2.40;;;1.40;;
64520;SDS011;50896;46.714;17.322;2023-04-16T13:06:23;1.33;;;1.23;;
64520;SDS011;50896;46.714;17.322;2023-04-16T13:08:50;1.40;;;1.30;;
64520;SDS011;50896;46.714;17.322;2023-04-16T13:11:17;2.10;;;1.25;;
64520;SDS011;50896;46.714;17.322;2023-04-16T13:13:44;1.30;;;1.10;;
64520;SDS011;50896;46.714;17.322;2023-04-16T13:16:11;1.35;;;1.20;;
64520;SDS011;50896;46.714;17.322;2023-04-16T13:18:38;1.10;;;1.00;;
64520;SDS011;50896;46.714;17.322;2023-04-16T13:21:05;1.17;;;1.08;;
64520;SDS011;50896;46.714;17.322;2023-04-16T13:23:33;2.35;;;1.15;;
64520;SDS011;50896;46.714;17.322;2023-04-16T13:26:00;1.77;;;1.40;;
64520;SDS011;50896;46.714;17.322;2023-04-16T13:28:27;2.30;;;1.17;;
64520;SDS011;50896;46.714;17.322;2023-04-16T13:30:54;1.20;;;1.00;;
64520;SDS011;50896;46.714;17.322;2023-04-16T13:33:21;1.90;;;1.35;;
64520;SDS011;50896;46.714;17.322;2023-04-16T13:35:48;1.60;;;1.40;;
64520;SDS011;50896;46.714;17.322;2023-04-16T13:38:15;2.08;;;1.20;;
64520;SDS011;50896;46.714;17.322;2023-04-16T13:40:42;2.30;;;2.10;;
64520;SDS011;50896;46.714;17.322;2023-04-16T13:43:09;2.72;;;2.47;;
64520;SDS011;50896;46.714;17.322;2023-04-16T13:45:37;2.17;;;1.98;;
64520;SDS011;50896;46.714;17.322;2023-04-16T13:48:04;5.70;;;3.78;;
64520;SDS011;50896;46.714;17.322;2023-04-16T13:50:30;3.08;;;2.15;;
64520;SDS011;50896;46.714;17.322;2023-04-16T13:52:57;2.17;;;1.90;;
64520;SDS011;50896;46.714;17.322;2023-04-16T13:55:24;3.28;;;2.60;;
64520;SDS011;50896;46.714;17.322;2023-04-16T13:57:51;4.97;;;3.20;;
64520;SDS011;50896;46.714;17.322;2023-04-16T14:00:18;4.90;;;3.33;;
64520;SDS011;50896;46.714;17.322;2023-04-16T14:02:45;9.27;;;5.57;;
64520;SDS011;50896;46.714;17.322;2023-04-16T14:05:14;10.80;;;5.65;;
64520;SDS011;50896;46.714;17.322;2023-04-16T14:07:41;17.67;;;9.57;;
64520;SDS011;50896;46.714;17.322;2023-04-16T14:10:08;6.80;;;4.50;;
64520;SDS011;50896;46.714;17.322;2023-04-16T14:12:35;4.82;;;3.45;;
64520;SDS011;50896;46.714;17.322;2023-04-16T14:15:04;9.93;;;5.43;;
64520;SDS011;50896;46.714;17.322;2023-04-16T14:17:32;5.22;;;3.63;;
64520;SDS011;50896;46.714;17.322;2023-04-16T14:19:59;5.05;;;3.38;;
64520;SDS011;50896;46.714;17.322;2023-04-16T14:22:26;6.47;;;4.22;;
64520;SDS011;50896;46.714;17.322;2023-04-16T14:24:52;6.55;;;3.65;;
64520;SDS011;50896;46.714;17.322;2023-04-16T14:27:19;14.25;;;6.95;;
64520;SDS011;50896;46.714;17.322;2023-04-16T14:29:46;15.90;;;8.50;;
64520;SDS011;50896;46.714;17.322;2023-04-16T14:32:13;10.75;;;5.85;;
64520;SDS011;50896;46.714;17.322;2023-04-16T14:34:40;7.57;;;4.80;;
64520;SDS011;50896;46.714;17.322;2023-04-16T14:37:07;7.65;;;4.63;;
64520;SDS011;50896;46.714;17.322;2023-04-16T14:39:33;6.05;;;3.60;;
64520;SDS011;50896;46.714;17.322;2023-04-16T14:42:01;8.70;;;4.93;;
64520;SDS011;50896;46.714;17.322;2023-04-16T14:44:28;5.30;;;3.05;;
64520;SDS011;50896;46.714;17.322;2023-04-16T14:46:55;3.25;;;2.70;;
64520;SDS011;50896;46.714;17.322;2023-04-16T14:49:22;3.40;;;2.38;;
64520;SDS011;50896;46.714;17.322;2023-04-16T14:51:49;3.78;;;2.25;;
64520;SDS011;50896;46.714;17.322;2023-04-16T14:54:18;4.45;;;2.50;;
64520;SDS011;50896;46.714;17.322;2023-04-16T14:56:45;2.80;;;2.50;;
64520;SDS011;50896;46.714;17.322;2023-04-16T14:59:12;3.70;;;2.85;;
64520;SDS011;50896;46.714;17.322;2023-04-16T15:01:39;2.90;;;2.60;;
64520;SDS011;50896;46.714;17.322;2023-04-16T15:04:07;3.50;;;3.00;;
64520;SDS011;50896;46.714;17.322;2023-04-16T15:06:34;3.50;;;3.08;;